Impacts TAF Board
For situational awareness. Not to be used for flight planning purposes.
IDs:

KUTS - Huntsville Muni, TX, US

Issued at 1721 UTC 21 May 2022
Updated at 2149 UTC 21 May 2022
Potential Impact None Slight Moderate High
Time2053Z 21/22Z 21/23Z 22/00Z 22/01Z 22/02Z 22/03Z 22/04Z 22/05Z 22/06Z 22/07Z 22/08Z 22/09Z 22/10Z>>
Type OBS PRVL PRVL PRVL PRVL PRVL PRVL PRVL
  [TEMP]  
PRVL
  [TEMP]  
PRVL
  [TEMP]  
PRVL
  [TEMP]  
PRVL PRVL PRVL
  [TEMP]  
VIS 10 >6 >6 >6 >6 >6 >6 >6
  [3]  
>6
  [3]  
>6
  [3]  
>6
  [3]  
>6 6 6
  [6]  
CIG 43 -- -- -- -- -- 40 40
  [15]  
40
  [15]  
40
  [15]  
40
  [15]  
40 15 15
  [7]  
Cover BKN SCT SCT SCT SCT SCT BKN BKN
  [BKN]  
BKN
  [BKN]  
BKN
  [BKN]  
BKN
  [BKN]  
BKN BKN BKN
  [BKN]  
FltCat VFR VFR VFR VFR VFR VFR VFR VFR
  [MVFR]  
VFR
  [MVFR]  
VFR
  [MVFR]  
VFR
  [MVFR]  
VFR MVFR MVFR
  [IFR]  
WX -- -- -- -- -- -- VCTS VCTS
  [TSRA]  
VCTS
  [TSRA]  
VCTS
  [TSRA]  
VCTS
  [TSRA]  
VCTS BR BR
  [--]  
WDir VRB 180 180 180 180 180 150 150
[VRB]
150
[VRB]
150
[VRB]
150
[VRB]
150 340 340
[340]
WSpd 3 14 14 14 14 14 6 6
  [25]  
6
  [25]  
6
  [25]  
6
  [25]  
6 6 6
  [6]  
WGst -- -- -- -- -- -- -- --
  [--]  
--
  [--]  
--
  [--]  
--
  [--]  
-- -- --
  [--]  
WSHgt -- -- -- -- -- -- -- --
[--]
--
[--]
--
[--]
--
[--]
-- -- --
[--]
WSDir -- -- -- -- -- -- -- --
[--]
--
[--]
--
[--]
--
[--]
-- -- --
[--]
WSSpd -- -- -- -- -- -- -- --
[--]
--
[--]
--
[--]
--
[--]
-- -- --
[--]
Raw TAF
KUTS 211721Z 2118/2218 18014KT P6SM SCT040
  FM220300 15006KT P6SM VCTS SCT025 BKN040CB
  TEMPO 2204/2208 VRB25KT 3SM TSRA BKN015CB
  FM220900 34006KT 6SM BR SCT007 BKN015
  TEMPO 2210/2214 BKN007
  FM221600 35009KT P6SM SCT010 BKN020


Raw METAR
KUTS 212053Z AUTO VRB03KT 10SM BKN043 BKN060 35/23 A2987 RMK AO2 SLP110 T03500228 55007
KUTS 211953Z AUTO 16007KT 10SM FEW046 SCT055 36/23 A2987 RMK AO2 SLP109 T03560228
KUTS 211853Z AUTO 16007G17KT 120V180 10SM SCT050 34/22 A2988 RMK AO2 SLP112 T03440217

METAR Board
Radar Display
Forecast Discussion
For situational awareness. Not to be used for flight planning purposes.